sensor_id;sensor_type;location;lat;lon;timestamp;pressure;altitude;pressure_sealevel;temperature;humidity
41222;BME280;26952;42.884;23.918;2023-02-16T00:01:56;97056.31;;;-0.01;100.00
41222;BME280;26952;42.884;23.918;2023-02-16T00:04:24;97094.88;;;0.25;100.00
41222;BME280;26952;42.884;23.918;2023-02-16T00:06:51;97079.88;;;0.13;100.00
41222;BME280;26952;42.884;23.918;2023-02-16T00:09:17;97080.28;;;0.06;100.00
41222;BME280;26952;42.884;23.918;2023-02-16T00:11:43;97082.56;;;0.12;100.00
41222;BME280;26952;42.884;23.918;2023-02-16T00:14:27;97074.75;;;0.12;100.00
41222;BME280;26952;42.884;23.918;2023-02-16T00:16:55;97082.59;;;-0.06;100.00
41222;BME280;26952;42.884;23.918;2023-02-16T00:21:49;97086.66;;;-0.17;100.00
41222;BME280;26952;42.884;23.918;2023-02-16T00:24:15;97075.41;;;-0.18;100.00
41222;BME280;26952;42.884;23.918;2023-02-16T00:26:41;97083.66;;;-0.10;100.00
41222;BME280;26952;42.884;23.918;2023-02-16T00:29:33;97063.06;;;-0.14;100.00
41222;BME280;26952;42.884;23.918;2023-02-16T00:31:58;97077.75;;;0.04;100.00
41222;BME280;26952;42.884;23.918;2023-02-16T00:36:54;97077.44;;;0.10;100.00
41222;BME280;26952;42.884;23.918;2023-02-16T00:39:20;97082.25;;;0.18;100.00
41222;BME280;26952;42.884;23.918;2023-02-16T00:41:46;97087.06;;;0.25;100.00
41222;BME280;26952;42.884;23.918;2023-02-16T00:44:30;97082.69;;;0.26;100.00
41222;BME280;26952;42.884;23.918;2023-02-16T00:47:03;97069.97;;;0.20;100.00
41222;BME280;26952;42.884;23.918;2023-02-16T00:49:34;97095.03;;;0.22;100.00
41222;BME280;26952;42.884;23.918;2023-02-16T00:52:00;97083.25;;;0.15;100.00
41222;BME280;26952;42.884;23.918;2023-02-16T00:54:25;97079.94;;;0.12;100.00
41222;BME280;26952;42.884;23.918;2023-02-16T00:56:51;97082.09;;;0.03;100.00
41222;BME280;26952;42.884;23.918;2023-02-16T00:59:19;97073.34;;;-0.28;100.00
41222;BME280;26952;42.884;23.918;2023-02-16T01:01:46;97082.28;;;-0.34;100.00
41222;BME280;26952;42.884;23.918;2023-02-16T01:04:19;97062.63;;;-0.56;100.00
41222;BME280;26952;42.884;23.918;2023-02-16T01:06:45;97060.50;;;-0.65;100.00
41222;BME280;26952;42.884;23.918;2023-02-16T01:09:29;97059.56;;;-0.64;100.00
41222;BME280;26952;42.884;23.918;2023-02-16T01:12:18;97050.19;;;-0.67;100.00
41222;BME280;26952;42.884;23.918;2023-02-16T01:14:48;97057.97;;;-0.50;100.00
41222;BME280;26952;42.884;23.918;2023-02-16T01:17:15;97065.53;;;-0.45;100.00
41222;BME280;26952;42.884;23.918;2023-02-16T01:19:40;97047.41;;;-0.47;100.00
41222;BME280;26952;42.884;23.918;2023-02-16T01:22:06;97056.53;;;-0.38;100.00
41222;BME280;26952;42.884;23.918;2023-02-16T01:24:31;97065.44;;;-0.44;100.00
41222;BME280;26952;42.884;23.918;2023-02-16T01:26:56;97059.59;;;-0.47;100.00
41222;BME280;26952;42.884;23.918;2023-02-16T01:29:22;97052.38;;;-0.59;100.00
41222;BME280;26952;42.884;23.918;2023-02-16T01:31:47;97051.84;;;-0.66;100.00
41222;BME280;26952;42.884;23.918;2023-02-16T01:34:13;97058.59;;;-0.62;100.00
41222;BME280;26952;42.884;23.918;2023-02-16T01:36:41;97041.69;;;-0.70;100.00
41222;BME280;26952;42.884;23.918;2023-02-16T01:39:11;97042.19;;;-0.81;100.00
41222;BME280;26952;42.884;23.918;2023-02-16T01:44:33;97049.31;;;-0.84;100.00
41222;BME280;26952;42.884;23.918;2023-02-16T01:49:47;97048.50;;;-1.03;100.00
41222;BME280;26952;42.884;23.918;2023-02-16T01:52:29;97045.75;;;-1.00;100.00
41222;BME280;26952;42.884;23.918;2023-02-16T02:03:25;97046.34;;;-1.12;100.00
41222;BME280;26952;42.884;23.918;2023-02-16T02:06:16;97043.06;;;-1.34;100.00
41222;BME280;26952;42.884;23.918;2023-02-16T02:08:48;97053.31;;;-1.31;100.00
41222;BME280;26952;42.884;23.918;2023-02-16T02:11:44;97053.66;;;-1.20;100.00
41222;BME280;26952;42.884;23.918;2023-02-16T02:14:16;97031.31;;;-1.42;100.00
41222;BME280;26952;42.884;23.918;2023-02-16T02:17:11;97040.59;;;-1.38;100.00
41222;BME280;26952;42.884;23.918;2023-02-16T02:23:15;97043.06;;;-1.16;100.00
41222;BME280;26952;42.884;23.918;2023-02-16T02:29:01;97044.78;;;-1.16;100.00
41222;BME280;26952;42.884;23.918;2023-02-16T02:37:46;97049.19;;;-1.35;100.00
41222;BME280;26952;42.884;23.918;2023-02-16T02:40:27;97034.19;;;-1.48;100.00
41222;BME280;26952;42.884;23.918;2023-02-16T02:43:24;97045.69;;;-1.53;100.00
41222;BME280;26952;42.884;23.918;2023-02-16T02:46:02;97044.06;;;-1.56;100.00
41222;BME280;26952;42.884;23.918;2023-02-16T02:48:30;97042.09;;;-1.51;100.00
41222;BME280;26952;42.884;23.918;2023-02-16T02:51:18;97034.66;;;-1.58;100.00
41222;BME280;26952;42.884;23.918;2023-02-16T02:57:20;97038.50;;;-1.67;100.00
41222;BME280;26952;42.884;23.918;2023-02-16T03:05:32;97031.50;;;-1.65;100.00
41222;BME280;26952;42.884;23.918;2023-02-16T03:08:07;97030.41;;;-1.59;100.00
41222;BME280;26952;42.884;23.918;2023-02-16T03:10:56;97026.47;;;-1.68;100.00
41222;BME280;26952;42.884;23.918;2023-02-16T03:13:45;97030.50;;;-1.62;100.00
41222;BME280;26952;42.884;23.918;2023-02-16T03:16:13;97028.84;;;-1.63;100.00
41222;BME280;26952;42.884;23.918;2023-02-16T03:18:40;97034.19;;;-1.66;100.00
41222;BME280;26952;42.884;23.918;2023-02-16T03:21:26;97024.00;;;-1.71;100.00
41222;BME280;26952;42.884;23.918;2023-02-16T03:24:18;97014.25;;;-1.66;100.00
41222;BME280;26952;42.884;23.918;2023-02-16T03:27:05;97019.16;;;-1.60;100.00
41222;BME280;26952;42.884;23.918;2023-02-16T03:29:51;97016.28;;;-1.54;100.00
41222;BME280;26952;42.884;23.918;2023-02-16T03:32:19;97007.84;;;-1.59;100.00
41222;BME280;26952;42.884;23.918;2023-02-16T03:34:44;97007.59;;;-1.53;100.00
41222;BME280;26952;42.884;23.918;2023-02-16T03:37:11;97020.28;;;-1.47;100.00
41222;BME280;26952;42.884;23.918;2023-02-16T03:39:37;97019.84;;;-1.38;100.00
41222;BME280;26952;42.884;23.918;2023-02-16T03:42:22;97022.66;;;-1.23;100.00
41222;BME280;26952;42.884;23.918;2023-02-16T03:44:48;97017.59;;;-1.26;100.00
41222;BME280;26952;42.884;23.918;2023-02-16T03:47:14;97025.66;;;-1.14;100.00
41222;BME280;26952;42.884;23.918;2023-02-16T03:49:39;97027.06;;;-1.25;100.00
41222;BME280;26952;42.884;23.918;2023-02-16T03:52:04;96998.31;;;-1.39;100.00
41222;BME280;26952;42.884;23.918;2023-02-16T03:54:30;97018.81;;;-1.16;100.00
41222;BME280;26952;42.884;23.918;2023-02-16T03:56:55;97028.13;;;-1.29;100.00
41222;BME280;26952;42.884;23.918;2023-02-16T03:59:21;97033.59;;;-1.17;100.00
41222;BME280;26952;42.884;23.918;2023-02-16T04:01:46;97030.38;;;-1.22;100.00
41222;BME280;26952;42.884;23.918;2023-02-16T04:04:11;97028.25;;;-1.32;100.00
41222;BME280;26952;42.884;23.918;2023-02-16T04:06:39;97028.84;;;-1.45;100.00
41222;BME280;26952;42.884;23.918;2023-02-16T04:09:04;97021.00;;;-1.43;100.00
41222;BME280;26952;42.884;23.918;2023-02-16T04:11:30;97021.97;;;-1.46;100.00
41222;BME280;26952;42.884;23.918;2023-02-16T04:14:14;97029.75;;;-1.46;100.00
41222;BME280;26952;42.884;23.918;2023-02-16T04:16:39;97016.13;;;-1.51;100.00
41222;BME280;26952;42.884;23.918;2023-02-16T04:19:05;97029.00;;;-1.48;100.00
41222;BME280;26952;42.884;23.918;2023-02-16T04:21:32;97023.72;;;-1.46;100.00
41222;BME280;26952;42.884;23.918;2023-02-16T04:23:57;97018.63;;;-1.48;100.00
41222;BME280;26952;42.884;23.918;2023-02-16T04:26:23;96992.03;;;-1.71;100.00
41222;BME280;26952;42.884;23.918;2023-02-16T04:28:49;97021.53;;;-1.55;100.00
41222;BME280;26952;42.884;23.918;2023-02-16T04:31:14;97030.97;;;-1.53;100.00
41222;BME280;26952;42.884;23.918;2023-02-16T04:33:39;96997.84;;;-1.66;100.00
41222;BME280;26952;42.884;23.918;2023-02-16T04:36:05;97019.72;;;-1.72;100.00
41222;BME280;26952;42.884;23.918;2023-02-16T04:38:31;97016.47;;;-1.77;100.00
41222;BME280;26952;42.884;23.918;2023-02-16T04:40:56;97016.22;;;-1.71;100.00
41222;BME280;26952;42.884;23.918;2023-02-16T04:43:21;97023.56;;;-1.62;100.00
41222;BME280;26952;42.884;23.918;2023-02-16T04:45:47;97020.97;;;-1.62;100.00
41222;BME280;26952;42.884;23.918;2023-02-16T04:48:12;97013.84;;;-1.75;100.00
41222;BME280;26952;42.884;23.918;2023-02-16T04:50:38;97011.84;;;-1.70;100.00
41222;BME280;26952;42.884;23.918;2023-02-16T04:53:03;97027.66;;;-1.75;100.00
41222;BME280;26952;42.884;23.918;2023-02-16T04:55:28;97009.97;;;-1.85;100.00
41222;BME280;26952;42.884;23.918;2023-02-16T04:57:55;97028.84;;;-1.82;100.00
41222;BME280;26952;42.884;23.918;2023-02-16T05:00:20;97016.13;;;-2.06;100.00
41222;BME280;26952;42.884;23.918;2023-02-16T05:02:46;97014.09;;;-2.00;100.00
41222;BME280;26952;42.884;23.918;2023-02-16T05:05:11;97031.78;;;-1.89;100.00
41222;BME280;26952;42.884;23.918;2023-02-16T05:07:37;97029.53;;;-1.97;100.00
41222;BME280;26952;42.884;23.918;2023-02-16T05:10:04;97025.16;;;-2.15;100.00
41222;BME280;26952;42.884;23.918;2023-02-16T05:12:29;97022.22;;;-2.07;100.00
41222;BME280;26952;42.884;23.918;2023-02-16T05:15:17;97015.31;;;-2.27;100.00
41222;BME280;26952;42.884;23.918;2023-02-16T05:17:43;97030.75;;;-2.24;100.00
41222;BME280;26952;42.884;23.918;2023-02-16T05:20:09;97041.50;;;-2.13;100.00
41222;BME280;26952;42.884;23.918;2023-02-16T05:22:35;97032.50;;;-2.24;100.00
41222;BME280;26952;42.884;23.918;2023-02-16T05:25:04;97030.47;;;-2.18;100.00
41222;BME280;26952;42.884;23.918;2023-02-16T05:27:30;97033.56;;;-2.10;100.00
41222;BME280;26952;42.884;23.918;2023-02-16T05:29:56;97037.38;;;-1.98;100.00
41222;BME280;26952;42.884;23.918;2023-02-16T05:32:22;97035.09;;;-2.06;100.00
41222;BME280;26952;42.884;23.918;2023-02-16T05:34:48;97026.00;;;-2.14;100.00
41222;BME280;26952;42.884;23.918;2023-02-16T05:37:15;97021.81;;;-1.98;100.00
41222;BME280;26952;42.884;23.918;2023-02-16T05:39:40;97034.44;;;-1.91;100.00
41222;BME280;26952;42.884;23.918;2023-02-16T05:42:06;97052.13;;;-1.80;100.00
41222;BME280;26952;42.884;23.918;2023-02-16T05:44:31;97040.53;;;-1.73;100.00
41222;BME280;26952;42.884;23.918;2023-02-16T05:46:57;97043.44;;;-1.61;100.00
41222;BME280;26952;42.884;23.918;2023-02-16T05:49:22;97051.97;;;-1.59;100.00
41222;BME280;26952;42.884;23.918;2023-02-16T05:51:48;97036.63;;;-1.63;100.00
41222;BME280;26952;42.884;23.918;2023-02-16T05:54:13;97058.16;;;-1.43;100.00
41222;BME280;26952;42.884;23.918;2023-02-16T05:56:46;97055.94;;;-1.31;100.00
41222;BME280;26952;42.884;23.918;2023-02-16T05:59:13;97062.16;;;-1.17;100.00
41222;BME280;26952;42.884;23.918;2023-02-16T06:01:39;97057.22;;;-1.23;100.00
41222;BME280;26952;42.884;23.918;2023-02-16T06:04:09;97067.44;;;-1.18;100.00
41222;BME280;26952;42.884;23.918;2023-02-16T06:06:36;97063.47;;;-1.08;100.00
41222;BME280;26952;42.884;23.918;2023-02-16T06:09:03;97051.84;;;-1.18;100.00
41222;BME280;26952;42.884;23.918;2023-02-16T06:11:29;97056.22;;;-1.02;100.00
41222;BME280;26952;42.884;23.918;2023-02-16T06:14:02;97049.59;;;-0.90;100.00
41222;BME280;26952;42.884;23.918;2023-02-16T06:16:29;97050.22;;;-0.85;100.00
41222;BME280;26952;42.884;23.918;2023-02-16T06:18:56;97057.50;;;-0.75;100.00
41222;BME280;26952;42.884;23.918;2023-02-16T06:21:22;97047.94;;;-0.74;100.00
41222;BME280;26952;42.884;23.918;2023-02-16T06:23:48;97051.91;;;-0.84;100.00
41222;BME280;26952;42.884;23.918;2023-02-16T06:26:14;97061.00;;;-0.76;100.00
41222;BME280;26952;42.884;23.918;2023-02-16T06:28:40;97047.13;;;-0.75;100.00
41222;BME280;26952;42.884;23.918;2023-02-16T06:31:05;97052.22;;;-0.73;100.00
41222;BME280;26952;42.884;23.918;2023-02-16T06:33:31;97050.53;;;-0.74;100.00
41222;BME280;26952;42.884;23.918;2023-02-16T06:35:56;97045.50;;;-0.60;100.00
41222;BME280;26952;42.884;23.918;2023-02-16T06:38:22;97041.84;;;-0.56;100.00
41222;BME280;26952;42.884;23.918;2023-02-16T06:40:50;97055.44;;;-0.51;100.00
41222;BME280;26952;42.884;23.918;2023-02-16T06:43:16;97057.97;;;-0.33;100.00
41222;BME280;26952;42.884;23.918;2023-02-16T06:45:41;97049.09;;;-0.29;100.00
41222;BME280;26952;42.884;23.918;2023-02-16T06:48:06;97061.56;;;-0.18;100.00
41222;BME280;26952;42.884;23.918;2023-02-16T06:50:32;97075.63;;;-0.05;100.00
41222;BME280;26952;42.884;23.918;2023-02-16T06:52:57;97068.47;;;-0.02;100.00
41222;BME280;26952;42.884;23.918;2023-02-16T06:55:23;97083.25;;;0.15;100.00
41222;BME280;26952;42.884;23.918;2023-02-16T06:57:48;97068.47;;;0.16;100.00
41222;BME280;26952;42.884;23.918;2023-02-16T07:00:14;97081.84;;;0.25;100.00
41222;BME280;26952;42.884;23.918;2023-02-16T07:02:40;97073.78;;;0.30;100.00
41222;BME280;26952;42.884;23.918;2023-02-16T07:05:07;97073.03;;;0.28;100.00
41222;BME280;26952;42.884;23.918;2023-02-16T07:07:32;97066.31;;;0.24;100.00
41222;BME280;26952;42.884;23.918;2023-02-16T07:09:58;97061.19;;;0.22;100.00
41222;BME280;26952;42.884;23.918;2023-02-16T07:12:23;97059.03;;;0.13;100.00
41222;BME280;26952;42.884;23.918;2023-02-16T07:14:48;97062.50;;;0.14;100.00
41222;BME280;26952;42.884;23.918;2023-02-16T07:17:14;97063.47;;;0.28;100.00
41222;BME280;26952;42.884;23.918;2023-02-16T07:19:40;97057.19;;;0.32;100.00
41222;BME280;26952;42.884;23.918;2023-02-16T07:22:05;97068.19;;;0.37;100.00
41222;BME280;26952;42.884;23.918;2023-02-16T07:24:30;97051.63;;;0.38;100.00
41222;BME280;26952;42.884;23.918;2023-02-16T07:26:56;97050.63;;;0.41;100.00
41222;BME280;26952;42.884;23.918;2023-02-16T07:29:21;97053.09;;;0.44;100.00
41222;BME280;26952;42.884;23.918;2023-02-16T07:31:47;97065.34;;;0.57;100.00
41222;BME280;26952;42.884;23.918;2023-02-16T07:34:12;97041.56;;;0.63;100.00
41222;BME280;26952;42.884;23.918;2023-02-16T07:36:37;97035.47;;;0.64;100.00
41222;BME280;26952;42.884;23.918;2023-02-16T07:39:03;97043.50;;;1.06;100.00
41222;BME280;26952;42.884;23.918;2023-02-16T07:41:28;97078.81;;;1.87;100.00
41222;BME280;26952;42.884;23.918;2023-02-16T07:43:54;97045.75;;;2.43;100.00
41222;BME280;26952;42.884;23.918;2023-02-16T07:46:19;97030.28;;;2.95;100.00
41222;BME280;26952;42.884;23.918;2023-02-16T07:48:48;97034.03;;;3.44;100.00
41222;BME280;26952;42.884;23.918;2023-02-16T07:51:25;97042.13;;;4.05;100.00
41222;BME280;26952;42.884;23.918;2023-02-16T07:53:51;97026.47;;;4.54;100.00
41222;BME280;26952;42.884;23.918;2023-02-16T07:56:22;97020.22;;;4.93;97.42
41222;BME280;26952;42.884;23.918;2023-02-16T07:58:50;97018.69;;;5.37;94.02
41222;BME280;26952;42.884;23.918;2023-02-16T08:01:16;97002.84;;;5.74;91.15
41222;BME280;26952;42.884;23.918;2023-02-16T08:03:42;97008.91;;;6.09;87.56
41222;BME280;26952;42.884;23.918;2023-02-16T08:06:07;97013.88;;;6.46;84.82
41222;BME280;26952;42.884;23.918;2023-02-16T08:08:33;97018.53;;;6.65;81.84
41222;BME280;26952;42.884;23.918;2023-02-16T08:11:00;97012.91;;;6.80;79.51
41222;BME280;26952;42.884;23.918;2023-02-16T08:13:31;97014.53;;;7.03;78.40
41222;BME280;26952;42.884;23.918;2023-02-16T08:15:57;97003.28;;;7.13;78.20
41222;BME280;26952;42.884;23.918;2023-02-16T08:18:22;96986.47;;;7.25;77.38
41222;BME280;26952;42.884;23.918;2023-02-16T08:20:47;97018.97;;;7.57;75.27
41222;BME280;26952;42.884;23.918;2023-02-16T08:23:13;97015.34;;;7.58;73.85
41222;BME280;26952;42.884;23.918;2023-02-16T08:25:38;97015.44;;;7.67;72.74
41222;BME280;26952;42.884;23.918;2023-02-16T08:28:04;97019.44;;;7.51;66.11
41222;BME280;26952;42.884;23.918;2023-02-16T08:30:32;97013.09;;;7.53;66.74
41222;BME280;26952;42.884;23.918;2023-02-16T08:32:58;97018.78;;;7.69;66.43
41222;BME280;26952;42.884;23.918;2023-02-16T08:35:27;97023.94;;;7.91;64.73
41222;BME280;26952;42.884;23.918;2023-02-16T08:37:55;97017.59;;;7.94;64.01
41222;BME280;26952;42.884;23.918;2023-02-16T08:40:20;97013.03;;;7.96;63.95
41222;BME280;26952;42.884;23.918;2023-02-16T08:42:49;97021.03;;;7.94;61.69
41222;BME280;26952;42.884;23.918;2023-02-16T08:45:15;97021.00;;;8.05;62.53
41222;BME280;26952;42.884;23.918;2023-02-16T08:47:40;97033.16;;;8.17;66.32
41222;BME280;26952;42.884;23.918;2023-02-16T08:50:06;97019.63;;;8.11;61.92
41222;BME280;26952;42.884;23.918;2023-02-16T08:52:31;97021.94;;;7.84;64.78
41222;BME280;26952;42.884;23.918;2023-02-16T08:54:57;97018.41;;;7.42;68.06
41222;BME280;26952;42.884;23.918;2023-02-16T08:57:22;97011.44;;;7.10;73.16
41222;BME280;26952;42.884;23.918;2023-02-16T08:59:48;97019.00;;;6.92;76.14
41222;BME280;26952;42.884;23.918;2023-02-16T09:02:33;97019.56;;;6.95;74.98
41222;BME280;26952;42.884;23.918;2023-02-16T09:04:58;97025.50;;;7.31;76.90
41222;BME280;26952;42.884;23.918;2023-02-16T09:07:24;97024.22;;;7.57;78.50
41222;BME280;26952;42.884;23.918;2023-02-16T09:09:49;97021.44;;;7.90;74.32
41222;BME280;26952;42.884;23.918;2023-02-16T09:12:15;97028.88;;;8.37;71.48
41222;BME280;26952;42.884;23.918;2023-02-16T09:14:40;97024.34;;;8.49;69.40
41222;BME280;26952;42.884;23.918;2023-02-16T09:17:06;97024.75;;;8.74;64.93
41222;BME280;26952;42.884;23.918;2023-02-16T09:19:31;97013.19;;;9.05;66.82
41222;BME280;26952;42.884;23.918;2023-02-16T09:21:57;96998.75;;;9.09;62.09
41222;BME280;26952;42.884;23.918;2023-02-16T09:24:22;97031.22;;;9.49;61.79
41222;BME280;26952;42.884;23.918;2023-02-16T09:26:47;97016.91;;;9.61;59.41
41222;BME280;26952;42.884;23.918;2023-02-16T09:29:31;97009.69;;;9.63;60.66
41222;BME280;26952;42.884;23.918;2023-02-16T09:31:57;97007.72;;;9.84;57.20
41222;BME280;26952;42.884;23.918;2023-02-16T09:34:22;97018.84;;;10.07;52.50
41222;BME280;26952;42.884;23.918;2023-02-16T09:36:48;97006.06;;;10.22;56.07
41222;BME280;26952;42.884;23.918;2023-02-16T09:39:15;96969.47;;;10.08;52.45
41222;BME280;26952;42.884;23.918;2023-02-16T09:44:33;96993.19;;;10.46;50.86
41222;BME280;26952;42.884;23.918;2023-02-16T09:47:05;96987.59;;;10.58;52.40
41222;BME280;26952;42.884;23.918;2023-02-16T09:49:36;96989.50;;;10.66;49.75
41222;BME280;26952;42.884;23.918;2023-02-16T09:52:34;96988.22;;;10.79;51.66
41222;BME280;26952;42.884;23.918;2023-02-16T09:55:04;96994.22;;;10.72;50.07
41222;BME280;26952;42.884;23.918;2023-02-16T10:02:59;96986.97;;;10.37;50.09
41222;BME280;26952;42.884;23.918;2023-02-16T10:05:33;96987.69;;;10.20;51.32
41222;BME280;26952;42.884;23.918;2023-02-16T10:08:08;96954.06;;;10.40;52.18
41222;BME280;26952;42.884;23.918;2023-02-16T10:10:48;96978.44;;;11.07;51.36
41222;BME280;26952;42.884;23.918;2023-02-16T10:13:27;96972.91;;;11.00;49.56
41222;BME280;26952;42.884;23.918;2023-02-16T10:15:55;96969.69;;;10.70;49.82
41222;BME280;26952;42.884;23.918;2023-02-16T10:18:36;96964.78;;;10.75;50.54
41222;BME280;26952;42.884;23.918;2023-02-16T10:21:10;96963.47;;;10.88;51.42
41222;BME280;26952;42.884;23.918;2023-02-16T10:28:52;96965.31;;;11.50;46.10
41222;BME280;26952;42.884;23.918;2023-02-16T10:31:30;96962.16;;;11.64;45.74
41222;BME280;26952;42.884;23.918;2023-02-16T10:34:04;96965.72;;;11.55;43.00
41222;BME280;26952;42.884;23.918;2023-02-16T10:39:25;96959.56;;;11.37;41.97
41222;BME280;26952;42.884;23.918;2023-02-16T10:47:52;96945.09;;;12.27;42.53
41222;BME280;26952;42.884;23.918;2023-02-16T10:50:22;96934.97;;;12.56;42.75
41222;BME280;26952;42.884;23.918;2023-02-16T10:52:51;96936.13;;;12.54;40.62
41222;BME280;26952;42.884;23.918;2023-02-16T10:55:18;96935.81;;;12.57;42.98
41222;BME280;26952;42.884;23.918;2023-02-16T10:57:51;96922.06;;;12.62;41.04
41222;BME280;26952;42.884;23.918;2023-02-16T11:00:23;96909.94;;;12.59;40.64
41222;BME280;26952;42.884;23.918;2023-02-16T11:02:49;96917.78;;;12.69;40.00
41222;BME280;26952;42.884;23.918;2023-02-16T11:05:35;96920.81;;;12.74;41.82
41222;BME280;26952;42.884;23.918;2023-02-16T11:08:03;96920.84;;;12.82;39.00
41222;BME280;26952;42.884;23.918;2023-02-16T11:10:47;96916.72;;;12.95;38.87
41222;BME280;26952;42.884;23.918;2023-02-16T11:13:28;96920.94;;;13.06;39.57
41222;BME280;26952;42.884;23.918;2023-02-16T11:15:57;96899.16;;;13.02;38.43
41222;BME280;26952;42.884;23.918;2023-02-16T11:18:38;96904.53;;;13.18;37.81
41222;BME280;26952;42.884;23.918;2023-02-16T11:21:05;96903.44;;;13.53;39.38
41222;BME280;26952;42.884;23.918;2023-02-16T11:23:42;96899.75;;;13.38;36.72
41222;BME280;26952;42.884;23.918;2023-02-16T11:28:45;96883.13;;;13.44;37.03
41222;BME280;26952;42.884;23.918;2023-02-16T11:31:31;96897.09;;;13.54;35.38
41222;BME280;26952;42.884;23.918;2023-02-16T11:34:20;96891.03;;;13.12;35.56
41222;BME280;26952;42.884;23.918;2023-02-16T11:36:49;96872.09;;;13.15;36.39
41222;BME280;26952;42.884;23.918;2023-02-16T11:39:22;96890.78;;;13.39;35.98
41222;BME280;26952;42.884;23.918;2023-02-16T11:41:55;96883.47;;;13.65;36.00
41222;BME280;26952;42.884;23.918;2023-02-16T11:46:51;96873.78;;;14.28;35.26
41222;BME280;26952;42.884;23.918;2023-02-16T11:51:57;96854.38;;;13.55;34.47
41222;BME280;26952;42.884;23.918;2023-02-16T11:54:22;96866.84;;;13.95;34.44
41222;BME280;26952;42.884;23.918;2023-02-16T11:57:02;96858.13;;;14.17;34.99
41222;BME280;26952;42.884;23.918;2023-02-16T11:59:30;96854.31;;;14.28;35.38
41222;BME280;26952;42.884;23.918;2023-02-16T12:10:09;96853.22;;;13.26;37.25
41222;BME280;26952;42.884;23.918;2023-02-16T12:12:50;96839.97;;;12.92;34.92
41222;BME280;26952;42.884;23.918;2023-02-16T12:15:32;96827.25;;;13.12;35.70
41222;BME280;26952;42.884;23.918;2023-02-16T12:18:26;96825.59;;;13.51;39.89
41222;BME280;26952;42.884;23.918;2023-02-16T12:21:35;96834.94;;;13.63;35.75
41222;BME280;26952;42.884;23.918;2023-02-16T12:24:22;96827.75;;;13.71;34.66
41222;BME280;26952;42.884;23.918;2023-02-16T12:26:56;96810.25;;;14.01;34.52
41222;BME280;26952;42.884;23.918;2023-02-16T12:32:16;96821.97;;;14.77;34.32
41222;BME280;26952;42.884;23.918;2023-02-16T12:43:21;96815.84;;;14.22;35.74
41222;BME280;26952;42.884;23.918;2023-02-16T12:45:51;96804.50;;;13.33;35.71
41222;BME280;26952;42.884;23.918;2023-02-16T12:48:55;96811.13;;;13.21;36.08
41222;BME280;26952;42.884;23.918;2023-02-16T12:51:33;96795.19;;;13.37;35.12
41222;BME280;26952;42.884;23.918;2023-02-16T12:54:15;96794.03;;;13.48;43.09
41222;BME280;26952;42.884;23.918;2023-02-16T12:56:45;96791.88;;;13.59;43.01
41222;BME280;26952;42.884;23.918;2023-02-16T13:01:41;96798.63;;;14.02;38.07
41222;BME280;26952;42.884;23.918;2023-02-16T13:04:18;96799.38;;;14.27;39.91
41222;BME280;26952;42.884;23.918;2023-02-16T13:06:55;96782.91;;;14.23;39.99
41222;BME280;26952;42.884;23.918;2023-02-16T13:12:07;96787.28;;;14.08;40.86
41222;BME280;26952;42.884;23.918;2023-02-16T13:14:39;96764.78;;;13.32;42.09
41222;BME280;26952;42.884;23.918;2023-02-16T13:17:14;96788.03;;;13.46;42.46
41222;BME280;26952;42.884;23.918;2023-02-16T13:19:42;96780.22;;;13.44;43.11
41222;BME280;26952;42.884;23.918;2023-02-16T13:27:32;96773.09;;;13.29;43.68
41222;BME280;26952;42.884;23.918;2023-02-16T13:44:23;96762.28;;;13.06;45.04
41222;BME280;26952;42.884;23.918;2023-02-16T13:46:52;96768.88;;;12.78;44.23
41222;BME280;26952;42.884;23.918;2023-02-16T13:49:38;96751.84;;;12.39;44.62
41222;BME280;26952;42.884;23.918;2023-02-16T13:52:09;96770.84;;;12.18;45.09
41222;BME280;26952;42.884;23.918;2023-02-16T13:54:40;96770.91;;;11.67;46.11
41222;BME280;26952;42.884;23.918;2023-02-16T13:57:13;96770.44;;;11.29;46.62
41222;BME280;26952;42.884;23.918;2023-02-16T14:02:12;96753.91;;;10.74;48.21
41222;BME280;26952;42.884;23.918;2023-02-16T14:07:31;96750.88;;;10.07;50.53
41222;BME280;26952;42.884;23.918;2023-02-16T14:09:56;96749.44;;;9.85;50.74
41222;BME280;26952;42.884;23.918;2023-02-16T14:12:27;96766.19;;;9.66;51.80
41222;BME280;26952;42.884;23.918;2023-02-16T14:14:58;96752.75;;;9.50;51.72
41222;BME280;26952;42.884;23.918;2023-02-16T14:17:28;96756.25;;;9.41;52.85
41222;BME280;26952;42.884;23.918;2023-02-16T14:22:51;96764.13;;;8.95;54.68
41222;BME280;26952;42.884;23.918;2023-02-16T14:30:26;96751.59;;;8.40;57.05
41222;BME280;26952;42.884;23.918;2023-02-16T14:35:40;96742.28;;;7.87;59.37
41222;BME280;26952;42.884;23.918;2023-02-16T14:38:25;96753.28;;;7.92;60.54
41222;BME280;26952;42.884;23.918;2023-02-16T14:40:57;96741.41;;;7.77;60.83
41222;BME280;26952;42.884;23.918;2023-02-16T14:51:32;96733.09;;;7.12;64.40
41222;BME280;26952;42.884;23.918;2023-02-16T14:57:12;96745.59;;;6.78;67.58
41222;BME280;26952;42.884;23.918;2023-02-16T15:02:37;96731.78;;;6.44;69.76
41222;BME280;26952;42.884;23.918;2023-02-16T15:05:17;96739.00;;;6.31;70.48
41222;BME280;26952;42.884;23.918;2023-02-16T15:07:45;96722.44;;;6.09;71.78
41222;BME280;26952;42.884;23.918;2023-02-16T15:10:15;96747.28;;;6.05;73.22
41222;BME280;26952;42.884;23.918;2023-02-16T15:12:46;96728.34;;;6.01;73.45
41222;BME280;26952;42.884;23.918;2023-02-16T15:18:02;96732.09;;;6.19;71.98
41222;BME280;26952;42.884;23.918;2023-02-16T15:20:33;96751.41;;;6.29;71.70
41222;BME280;26952;42.884;23.918;2023-02-16T15:23:05;96744.59;;;6.38;70.47
41222;BME280;26952;42.884;23.918;2023-02-16T15:25:37;96730.59;;;6.37;70.53
41222;BME280;26952;42.884;23.918;2023-02-16T15:30:40;96729.72;;;6.16;72.24
41222;BME280;26952;42.884;23.918;2023-02-16T15:33:24;96707.53;;;5.98;72.47
41222;BME280;26952;42.884;23.918;2023-02-16T15:36:02;96728.81;;;6.06;71.81